Time;durP1;ratioP1;P1;durP2;ratioP2;P2;SDS_P1;SDS_P2;PMS_P1;PMS_P2;Temp;Humidity;BMP_temperature;BMP_pressure;BME280_temperature;BME280_humidity;BME280_pressure;Samples;Min_cycle;Max_cycle;Signal;HPM_P1;HPM_P2
2022/12/27 00:01:33;;;;;;;7.10;3.77;;;2.90;99.90;;;;;;5036158;28;20470;-63
2022/12/27 00:04:01;;;;;;;6.20;3.73;;;2.90;99.90;;;;;;5036547;28;20557;-63
2022/12/27 00:06:28;;;;;;;9.87;4.47;;;3.00;99.90;;;;;;5035683;28;20530;-63
2022/12/27 00:08:57;;;;;;;6.90;3.83;;;3.00;99.90;;;;;;5035158;28;20463;-63
2022/12/27 00:11:28;;;;;;;14.53;4.53;;;3.10;99.90;;;;;;5034146;28;20464;-63
2022/12/27 00:13:59;;;;;;;9.03;4.10;;;3.10;99.90;;;;;;5034275;28;20501;-63
2022/12/27 00:16:26;;;;;;;8.90;4.13;;;3.10;99.90;;;;;;5034583;28;20463;-63
2022/12/27 00:18:53;;;;;;;8.40;4.20;;;3.10;99.90;;;;;;5034809;28;20467;-64
2022/12/27 00:21:22;;;;;;;10.00;4.13;;;3.20;99.90;;;;;;5034893;28;20462;-64
2022/12/27 00:23:56;;;;;;;7.33;3.67;;;3.20;99.90;;;;;;5036027;28;20455;-63
2022/12/27 00:26:24;;;;;;;10.03;4.10;;;3.10;99.90;;;;;;5035756;28;20908;-64
2022/12/27 00:28:52;;;;;;;11.37;4.20;;;3.20;99.90;;;;;;5034439;28;20884;-64
2022/12/27 00:31:21;;;;;;;10.70;4.30;;;3.30;99.90;;;;;;5034616;28;20470;-63
2022/12/27 00:33:51;;;;;;;5.93;3.27;;;3.30;99.90;;;;;;5038959;28;20491;-64
2022/12/27 00:36:20;;;;;;;10.50;4.03;;;3.40;99.90;;;;;;5040000;28;20473;-63
2022/12/27 00:38:48;;;;;;;8.77;3.57;;;3.40;99.90;;;;;;5039834;28;20795;-63
2022/12/27 00:41:16;;;;;;;9.90;4.50;;;3.50;99.90;;;;;;5040093;28;20831;-63
2022/12/27 00:43:46;;;;;;;6.80;3.43;;;3.50;99.90;;;;;;5039905;28;20465;-64
2022/12/27 00:46:14;;;;;;;8.40;4.07;;;3.50;99.90;;;;;;5040073;28;20741;-63
2022/12/27 00:48:43;;;;;;;9.10;4.70;;;3.50;99.90;;;;;;5040091;28;20506;-64
2022/12/27 00:51:14;;;;;;;8.23;3.90;;;3.60;99.90;;;;;;5040375;28;20541;-63
2022/12/27 00:53:42;;;;;;;6.67;3.23;;;3.60;81.20;;;;;;5039830;28;20495;-64
2022/12/27 00:56:10;;;;;;;8.60;3.67;;;3.60;55.80;;;;;;5039661;28;20462;-64
2022/12/27 00:58:38;;;;;;;7.83;4.00;;;3.60;44.90;;;;;;5038251;28;20485;-63
2022/12/27 01:01:10;;;;;;;7.60;3.87;;;3.60;41.10;;;;;;5038448;28;20452;-63
2022/12/27 01:03:37;;;;;;;6.03;3.17;;;3.70;28.50;;;;;;5038051;28;20497;-63
2022/12/27 01:06:08;;;;;;;8.50;4.00;;;3.70;28.10;;;;;;5038065;28;20497;-63
2022/12/27 01:08:35;;;;;;;8.70;4.40;;;3.80;14.90;;;;;;5038248;28;20440;-64
2022/12/27 01:11:03;;;;;;;9.33;3.63;;;3.80;2.70;;;;;;5038183;28;20789;-63
2022/12/27 01:13:31;;;;;;;7.10;2.93;;;3.70;1.00;;;;;;5047300;28;20457;-63
2022/12/27 01:15:58;;;;;;;7.77;3.67;;;3.80;1.00;;;;;;5059225;28;20499;-63
2022/12/27 01:18:25;;;;;;;15.33;3.97;;;3.80;1.00;;;;;;5059298;28;20476;-64
2022/12/27 01:20:53;;;;;;;11.17;3.87;;;3.90;1.00;;;;;;5059332;28;20469;-64
2022/12/27 01:23:21;;;;;;;8.43;3.73;;;4.00;1.00;;;;;;5058980;28;20472;-64
2022/12/27 01:25:48;;;;;;;8.90;3.87;;;3.90;1.00;;;;;;5059075;28;20460;-64
2022/12/27 01:28:15;;;;;;;6.00;3.47;;;3.90;1.00;;;;;;5059341;28;20470;-63
2022/12/27 01:30:42;;;;;;;6.90;3.70;;;3.90;1.00;;;;;;5059352;28;20741;-64
2022/12/27 01:33:09;;;;;;;9.17;3.70;;;3.90;1.00;;;;;;5059277;28;20462;-63
2022/12/27 01:35:37;;;;;;;8.17;4.17;;;3.90;1.00;;;;;;5059504;28;20469;-64
2022/12/27 01:38:04;;;;;;;8.73;3.80;;;3.90;1.00;;;;;;5059027;28;20473;-63
2022/12/27 01:40:35;;;;;;;7.60;3.67;;;4.00;1.00;;;;;;5059342;28;20462;-64
2022/12/27 01:43:01;;;;;;;11.70;6.77;;;4.00;1.00;;;;;;5058802;28;20779;-64
2022/12/27 01:45:31;;;;;;;8.10;4.50;;;4.00;1.00;;;;;;5058716;28;20460;-63
2022/12/27 01:48:04;;;;;;;10.10;3.53;;;4.00;1.00;;;;;;5058981;28;20437;-64
2022/12/27 01:50:38;;;;;;;8.83;4.00;;;4.00;1.00;;;;;;5058941;28;20461;-64
2022/12/27 01:53:10;;;;;;;7.70;3.60;;;4.00;1.00;;;;;;5058888;28;20461;-64
2022/12/27 01:55:44;;;;;;;9.50;3.50;;;4.00;1.00;;;;;;5058193;28;20494;-64
2022/12/27 01:58:17;;;;;;;7.63;4.00;;;4.10;15.70;;;;;;5060000;28;20453;-64
2022/12/27 02:00:46;;;;;;;5.73;3.30;;;4.10;12.40;;;;;;5059387;28;20472;-63
2022/12/27 02:03:18;;;;;;;8.13;3.20;;;4.10;24.30;;;;;;5059853;28;20556;-64
2022/12/27 02:05:46;;;;;;;7.83;4.10;;;4.10;29.00;;;;;;5058548;28;20483;-64
2022/12/27 02:08:35;;;;;;;12.23;3.77;;;4.10;46.90;;;;;;5059474;28;20464;-64
2022/12/27 02:11:05;;;;;;;13.00;3.93;;;4.10;57.30;;;;;;5059371;28;20477;-64
2022/12/27 02:13:36;;;;;;;7.97;3.07;;;4.00;58.40;;;;;;5059326;28;20569;-64
2022/12/27 02:16:10;;;;;;;11.10;3.97;;;4.00;99.90;;;;;;5059255;28;20579;-65
2022/12/27 02:18:38;;;;;;;6.90;3.37;;;4.10;99.90;;;;;;5058980;28;20465;-64
2022/12/27 02:21:47;;;;;;;13.97;4.40;;;4.00;99.90;;;;;;5059025;28;20441;-65
2022/12/27 02:24:39;;;;;;;6.37;3.50;;;4.10;99.90;;;;;;4984620;28;20432;-64
2022/12/27 02:27:23;;;;;;;8.07;3.90;;;4.10;99.90;;;;;;5059322;28;20548;-64
2022/12/27 02:30:04;;;;;;;7.70;3.83;;;4.10;99.90;;;;;;5057890;28;20468;-64
2022/12/27 02:32:36;;;;;;;8.80;4.07;;;4.00;99.90;;;;;;5058664;28;20464;-64
2022/12/27 02:35:11;;;;;;;11.67;4.43;;;4.00;99.90;;;;;;5059116;28;20752;-65
2022/12/27 02:37:43;;;;;;;13.00;6.83;;;4.00;99.90;;;;;;5058181;28;20466;-64
2022/12/27 02:54:43;;;;;;;8.60;3.83;;;4.00;99.90;;;;;;5057509;28;20524;-64
2022/12/27 02:57:22;;;;;;;5.93;3.67;;;4.00;1.00;;;;;;5058636;28;20761;-64
2022/12/27 03:03:31;;;;;;;30.03;12.97;;;3.90;1.00;;;;;;5058179;28;20469;-64
2022/12/27 03:17:51;;;;;;;8.93;4.17;;;4.10;1.00;;;;;;5036715;28;20461;-64
2022/12/27 03:25:56;;;;;;;9.90;4.17;;;4.10;1.00;;;;;;5037400;28;20438;-64
2022/12/27 03:34:30;;;;;;;9.43;4.23;;;4.20;1.00;;;;;;5003955;28;20970;-64
2022/12/27 03:39:47;;;;;;;8.67;3.37;;;4.10;1.00;;;;;;5037253;28;20895;-64
2022/12/27 03:45:06;;;;;;;7.67;3.90;;;4.20;1.00;;;;;;5036833;28;20589;-64
2022/12/27 03:47:39;;;;;;;8.40;3.97;;;4.20;1.00;;;;;;5036696;28;20467;-64
2022/12/27 03:50:10;;;;;;;6.40;4.00;;;4.20;1.00;;;;;;5037168;28;20459;-64
2022/12/27 03:52:42;;;;;;;10.70;4.50;;;4.20;1.00;;;;;;5037722;28;20474;-64
2022/12/27 03:55:11;;;;;;;15.57;5.47;;;4.20;38.70;;;;;;5037580;28;20495;-64
2022/12/27 03:57:39;;;;;;;10.73;3.40;;;4.20;96.90;;;;;;5037043;28;20471;-64
2022/12/27 04:00:07;;;;;;;8.17;3.80;;;4.20;99.90;;;;;;5037263;28;20465;-64
2022/12/27 04:02:35;;;;;;;8.07;3.80;;;4.20;78.00;;;;;;5036786;28;20438;-64
2022/12/27 04:05:02;;;;;;;9.47;5.10;;;4.30;99.90;;;;;;5055800;28;20452;-64
2022/12/27 04:07:29;;;;;;;10.03;3.90;;;4.30;99.90;;;;;;5056946;28;20472;-63
2022/12/27 04:34:42;;;;;;;6.10;4.63;;;4.30;99.90;;;;;;5056827;28;20520;-64
2022/12/27 04:37:11;;;;;;;6.13;4.53;;;4.30;99.90;;;;;;5057473;28;20732;-64
2022/12/27 04:39:38;;;;;;;8.10;4.50;;;4.40;1.00;;;;;;5056385;28;20474;-64
2022/12/27 04:55:57;;;;;;;8.33;4.30;;;4.50;99.90;;;;;;5056213;28;20588;-64
2022/12/27 04:58:25;;;;;;;9.50;3.83;;;4.50;99.90;;;;;;5056476;28;20436;-64
2022/12/27 05:03:39;;;;;;;8.50;4.20;;;4.50;99.90;;;;;;5056127;28;20437;-64
2022/12/27 05:06:07;;;;;;;8.90;4.50;;;4.50;34.60;;;;;;5056525;28;20577;-64
2022/12/27 05:14:09;;;;;;;9.63;4.63;;;4.60;1.00;;;;;;5056452;28;20584;-64
2022/12/27 05:16:38;;;;;;;8.40;4.53;;;4.50;1.00;;;;;;5056525;28;20493;-64
2022/12/27 05:19:07;;;;;;;8.00;3.70;;;4.50;1.00;;;;;;5060013;28;20864;-64
2022/12/27 05:21:36;;;;;;;6.60;3.70;;;4.60;1.00;;;;;;5059965;28;20466;-65
2022/12/27 05:26:57;;;;;;;8.10;3.53;;;4.50;1.00;;;;;;4995674;28;20432;-64
2022/12/27 05:29:26;;;;;;;9.33;3.93;;;4.60;1.00;;;;;;5027424;28;20728;-64
2022/12/27 05:31:54;;;;;;;11.43;4.17;;;4.60;1.00;;;;;;5019406;28;20463;-64
2022/12/27 05:34:21;;;;;;;7.90;4.17;;;4.60;1.00;;;;;;5023583;28;20555;-64
2022/12/27 05:36:48;;;;;;;9.83;3.63;;;4.60;1.00;;;;;;5019874;28;20563;-65
2022/12/27 05:39:15;;;;;;;7.83;3.80;;;4.60;1.00;;;;;;5020201;28;20498;-64
2022/12/27 05:41:42;;;;;;;13.03;4.20;;;4.60;1.00;;;;;;5019482;28;20468;-64
2022/12/27 05:44:10;;;;;;;7.93;3.40;;;4.60;1.00;;;;;;5019405;28;20471;-65
2022/12/27 05:46:38;;;;;;;8.13;3.53;;;4.70;1.00;;;;;;5019102;28;20467;-64
2022/12/27 05:49:05;;;;;;;9.57;3.77;;;4.60;99.90;;;;;;5022815;28;20466;-64
2022/12/27 05:51:32;;;;;;;5.53;3.40;;;4.70;99.90;;;;;;5039396;28;20474;-64
2022/12/27 05:54:00;;;;;;;13.63;3.70;;;4.70;99.90;;;;;;5039467;28;20857;-64
2022/12/27 05:56:27;;;;;;;9.13;4.10;;;4.70;99.90;;;;;;5038385;28;20487;-65
2022/12/27 05:58:57;;;;;;;7.10;4.50;;;4.70;99.90;;;;;;5031141;28;20531;-64
2022/12/27 06:01:25;;;;;;;12.43;4.20;;;4.70;99.90;;;;;;5019409;28;20446;-64
2022/12/27 06:03:53;;;;;;;5.33;3.07;;;4.70;99.90;;;;;;5030645;28;20442;-64
2022/12/27 06:06:20;;;;;;;12.80;4.73;;;4.70;99.90;;;;;;5039096;28;20941;-64
2022/12/27 06:08:47;;;;;;;9.07;4.63;;;4.70;99.90;;;;;;5025684;28;20468;-64
2022/12/27 06:11:16;;;;;;;6.00;4.10;;;4.70;99.90;;;;;;5019778;28;20733;-63
2022/12/27 06:13:49;;;;;;;9.70;4.77;;;4.70;99.90;;;;;;5018973;28;20466;-64
2022/12/27 06:16:17;;;;;;;8.40;3.93;;;4.70;99.90;;;;;;5019248;28;20506;-64
2022/12/27 06:18:44;;;;;;;9.37;4.03;;;4.80;99.90;;;;;;5019489;28;20470;-64
2022/12/27 06:21:14;;;;;;;10.87;5.50;;;4.80;99.90;;;;;;5018857;28;20467;-64
2022/12/27 06:23:44;;;;;;;7.53;4.07;;;4.80;99.90;;;;;;5038736;28;20463;-64
2022/12/27 06:26:13;;;;;;;10.77;5.40;;;4.80;99.90;;;;;;5038479;28;20460;-65
2022/12/27 06:28:40;;;;;;;9.73;5.63;;;4.70;99.90;;;;;;5036619;28;20747;-64
2022/12/27 06:31:07;;;;;;;8.03;4.20;;;4.80;99.90;;;;;;5041598;28;20454;-64
2022/12/27 06:33:34;;;;;;;8.37;4.90;;;4.80;99.90;;;;;;5020523;28;20511;-65
2022/12/27 06:36:06;;;;;;;9.87;5.30;;;4.80;99.90;;;;;;5018344;28;20500;-64
2022/12/27 06:38:35;;;;;;;8.40;5.00;;;4.80;99.90;;;;;;5018560;28;20434;-64
2022/12/27 06:41:02;;;;;;;7.87;5.17;;;4.80;99.90;;;;;;5018740;28;20460;-64
2022/12/27 06:43:30;;;;;;;13.13;6.13;;;4.80;99.90;;;;;;5018110;28;20470;-64
2022/12/27 06:45:57;;;;;;;13.30;4.80;;;4.80;99.90;;;;;;5018348;28;20456;-64
2022/12/27 06:48:25;;;;;;;13.73;5.27;;;4.80;99.90;;;;;;5018570;28;20873;-65
2022/12/27 06:50:52;;;;;;;7.57;5.20;;;4.80;99.90;;;;;;5018509;28;20472;-64
2022/12/27 06:53:20;;;;;;;12.07;5.73;;;4.70;99.90;;;;;;5017892;28;20478;-64
2022/12/27 06:55:48;;;;;;;10.53;5.73;;;4.80;99.90;;;;;;5018083;28;20467;-64
2022/12/27 06:58:16;;;;;;;8.30;5.37;;;4.80;99.90;;;;;;5018715;28;20468;-64
2022/12/27 07:00:43;;;;;;;12.00;5.57;;;4.80;99.90;;;;;;5018660;28;20468;-64
2022/12/27 07:03:10;;;;;;;10.47;6.50;;;4.80;99.90;;;;;;5018216;28;20857;-64
2022/12/27 07:05:38;;;;;;;11.67;5.30;;;4.80;99.90;;;;;;5018913;28;20773;-64
2022/12/27 07:08:06;;;;;;;14.53;5.50;;;4.80;99.90;;;;;;5037802;28;20474;-64
2022/12/27 07:10:33;;;;;;;9.43;4.80;;;4.80;99.90;;;;;;5038176;28;20438;-64
2022/12/27 07:13:02;;;;;;;8.93;4.60;;;4.80;99.90;;;;;;5040004;28;20436;-64
2022/12/27 07:15:29;;;;;;;12.00;4.50;;;4.70;99.90;;;;;;5044762;28;20528;-64
2022/12/27 07:17:56;;;;;;;7.97;3.97;;;4.80;99.90;;;;;;5018037;28;20470;-65
2022/12/27 07:20:23;;;;;;;10.97;5.50;;;4.80;99.90;;;;;;5017901;28;20737;-64
2022/12/27 07:22:51;;;;;;;10.83;5.10;;;4.80;99.90;;;;;;5017707;28;20464;-64
2022/12/27 07:25:18;;;;;;;11.57;5.30;;;4.80;99.90;;;;;;5017077;28;20563;-64
2022/12/27 07:27:45;;;;;;;9.77;4.83;;;4.80;99.90;;;;;;5017553;28;20522;-65
2022/12/27 07:30:14;;;;;;;10.83;4.87;;;4.80;99.90;;;;;;5017733;28;20475;-64
2022/12/27 07:32:41;;;;;;;10.33;4.80;;;4.80;99.90;;;;;;5017706;28;20554;-65
2022/12/27 07:35:08;;;;;;;10.80;4.30;;;4.80;99.90;;;;;;5017424;28;20474;-64
2022/12/27 07:37:35;;;;;;;10.17;4.23;;;4.80;99.90;;;;;;5035352;28;20467;-65
2022/12/27 07:40:03;;;;;;;10.73;4.43;;;4.80;99.90;;;;;;5017087;28;20468;-64
2022/12/27 07:42:30;;;;;;;7.60;3.43;;;4.80;99.90;;;;;;5016730;28;20475;-64
2022/12/27 07:44:57;;;;;;;8.10;4.70;;;4.80;99.90;;;;;;5017044;28;20475;-64
2022/12/27 07:47:27;;;;;;;13.73;4.90;;;4.80;99.90;;;;;;5017524;28;20550;-64
2022/12/27 07:49:54;;;;;;;8.77;3.83;;;4.80;99.90;;;;;;5017472;28;20461;-64
2022/12/27 07:52:21;;;;;;;10.70;4.00;;;4.80;99.90;;;;;;5017464;28;20463;-64
2022/12/27 07:54:48;;;;;;;13.90;4.80;;;4.80;99.90;;;;;;5017627;28;20449;-64
2022/12/27 07:57:15;;;;;;;11.93;4.50;;;4.90;1.00;;;;;;5017099;28;20492;-64
2022/12/27 07:59:42;;;;;;;10.23;3.53;;;4.90;99.90;;;;;;5017000;28;20463;-64
2022/12/27 08:02:09;;;;;;;8.23;4.33;;;4.80;99.90;;;;;;5016261;28;20463;-64
2022/12/27 08:04:38;;;;;;;8.23;3.17;;;4.90;99.90;;;;;;5017060;28;20468;-64
2022/12/27 08:07:09;;;;;;;15.83;4.97;;;4.90;99.90;;;;;;5016951;28;20460;-64
2022/12/27 08:09:39;;;;;;;14.60;3.90;;;4.90;99.90;;;;;;5017333;28;20499;-64
2022/12/27 08:12:07;;;;;;;10.13;4.00;;;4.90;99.90;;;;;;5017160;28;20877;-65
2022/12/27 08:14:34;;;;;;;10.23;4.20;;;4.90;99.90;;;;;;5017486;28;20546;-65
2022/12/27 08:17:05;;;;;;;9.80;3.57;;;4.90;99.90;;;;;;5015826;28;20499;-65
2022/12/27 08:19:32;;;;;;;6.83;3.67;;;4.80;99.90;;;;;;5022467;28;20471;-65
2022/12/27 08:22:01;;;;;;;15.60;4.83;;;4.80;99.90;;;;;;5035087;28;20463;-65
2022/12/27 08:24:28;;;;;;;6.10;3.60;;;4.80;99.90;;;;;;5035587;28;20480;-65
2022/12/27 08:26:55;;;;;;;12.07;3.67;;;4.90;99.90;;;;;;5035290;28;20467;-65
2022/12/27 08:29:22;;;;;;;10.40;3.17;;;4.90;99.90;;;;;;5034277;28;20445;-65
2022/12/27 08:31:49;;;;;;;8.67;3.77;;;5.00;99.90;;;;;;5035761;28;20778;-65
2022/12/27 08:34:16;;;;;;;10.40;3.30;;;5.00;99.90;;;;;;5036826;28;20501;-65
2022/12/27 08:36:43;;;;;;;9.47;3.73;;;5.00;99.90;;;;;;5036411;28;20495;-65
2022/12/27 08:39:12;;;;;;;6.00;3.40;;;5.00;86.90;;;;;;5036147;28;20910;-65
2022/12/27 08:41:39;;;;;;;11.27;3.30;;;5.00;73.80;;;;;;5036831;28;20493;-65
2022/12/27 08:44:07;;;;;;;10.73;3.87;;;5.00;52.40;;;;;;5036954;28;20463;-65
2022/12/27 08:46:34;;;;;;;9.03;3.43;;;5.10;41.40;;;;;;5036854;28;20430;-65
2022/12/27 08:49:01;;;;;;;6.53;3.13;;;5.00;18.60;;;;;;5036604;28;20923;-65
2022/12/27 08:51:28;;;;;;;9.30;3.90;;;5.00;22.40;;;;;;5036255;28;20467;-65
2022/12/27 08:53:56;;;;;;;9.80;3.90;;;5.00;14.30;;;;;;5039717;28;20570;-65
2022/12/27 08:56:24;;;;;;;5.63;3.40;;;5.00;28.30;;;;;;5040550;28;20461;-65
2022/12/27 08:58:51;;;;;;;9.37;3.30;;;5.00;31.40;;;;;;5039479;28;20462;-65
2022/12/27 09:01:18;;;;;;;7.30;3.37;;;5.10;23.90;;;;;;5040173;28;20899;-65
2022/12/27 09:03:46;;;;;;;8.77;3.60;;;5.20;17.60;;;;;;5023327;28;20474;-65
2022/12/27 09:06:15;;;;;;;12.00;4.70;;;5.20;1.00;;;;;;5020466;28;20515;-65
2022/12/27 09:08:43;;;;;;;8.10;3.87;;;5.20;1.00;;;;;;5020669;28;20555;-65
2022/12/27 09:11:12;;;;;;;5.50;3.20;;;5.20;1.00;;;;;;5020212;28;20480;-65
2022/12/27 09:13:41;;;;;;;8.03;3.40;;;5.30;1.00;;;;;;5022259;28;21604;-65
2022/12/27 09:16:10;;;;;;;4.53;2.97;;;5.30;1.00;;;;;;5038943;28;20487;-65
2022/12/27 09:18:38;;;;;;;10.10;3.77;;;5.40;1.00;;;;;;5038523;28;20926;-65
2022/12/27 09:21:10;;;;;;;8.00;3.67;;;5.60;1.00;;;;;;5031172;28;20741;-65
2022/12/27 09:23:38;;;;;;;9.00;3.00;;;5.70;1.00;;;;;;5018469;28;20464;-65
2022/12/27 09:26:07;;;;;;;11.17;3.83;;;5.60;1.00;;;;;;5018418;28;20470;-65
2022/12/27 09:28:35;;;;;;;14.37;3.90;;;5.70;1.00;;;;;;5018260;28;20443;-65
2022/12/27 09:31:04;;;;;;;6.67;3.40;;;5.90;1.00;;;;;;5018459;28;20442;-65
2022/12/27 09:33:31;;;;;;;5.87;3.43;;;6.00;1.00;;;;;;5019654;28;20468;-65
2022/12/27 09:36:03;;;;;;;7.00;3.53;;;6.20;1.00;;;;;;5019348;28;20488;-65
2022/12/27 09:38:30;;;;;;;9.80;4.33;;;6.20;1.00;;;;;;5019416;28;20472;-65
2022/12/27 09:41:00;;;;;;;9.43;3.27;;;6.10;1.00;;;;;;5019483;28;20442;-65
2022/12/27 09:43:39;;;;;;;8.90;3.43;;;5.90;1.00;;;;;;5017896;28;20467;-65
2022/12/27 09:46:13;;;;;;;5.27;3.20;;;5.90;1.00;;;;;;5018052;28;20483;-65
2022/12/27 09:48:40;;;;;;;11.33;5.20;;;5.90;1.00;;;;;;5018473;28;20441;-65
2022/12/27 09:51:16;;;;;;;7.77;3.60;;;6.00;1.00;;;;;;5018030;28;20471;-65
2022/12/27 09:53:48;;;;;;;9.07;3.70;;;5.90;1.00;;;;;;5017468;28;20468;-65
2022/12/27 09:56:22;;;;;;;7.30;4.23;;;5.90;1.00;;;;;;5017724;28;20491;-65
2022/12/27 09:58:52;;;;;;;7.40;3.33;;;5.90;1.00;;;;;;5022897;28;20476;-65
2022/12/27 10:01:29;;;;;;;9.60;4.07;;;5.80;1.00;;;;;;5038081;28;20467;-65
2022/12/27 10:03:56;;;;;;;7.40;3.80;;;5.90;1.00;;;;;;5038956;28;20871;-65
2022/12/27 10:06:52;;;;;;;8.90;3.70;;;6.00;1.00;;;;;;5038897;28;20466;-65
2022/12/27 10:09:31;;;;;;;5.53;3.50;;;6.20;1.00;;;;;;5038845;28;20808;-65
2022/12/27 10:12:03;;;;;;;8.00;3.90;;;6.50;1.00;;;;;;5038863;28;20455;-65
2022/12/27 10:14:45;;;;;;;8.50;4.17;;;6.40;1.00;;;;;;5034476;28;20460;-65
2022/12/27 10:17:30;;;;;;;9.10;4.13;;;6.40;1.00;;;;;;5025559;28;20495;-65
2022/12/27 10:20:09;;;;;;;8.67;3.40;;;6.60;1.00;;;;;;5035831;28;20466;-64
2022/12/27 10:22:41;;;;;;;7.70;3.50;;;6.80;1.00;;;;;;5018802;28;20442;-65
2022/12/27 10:25:13;;;;;;;11.33;3.63;;;6.80;1.00;;;;;;5037290;28;20459;-65
2022/12/27 10:27:41;;;;;;;11.40;4.30;;;6.80;1.00;;;;;;5037906;28;20459;-64
2022/12/27 10:30:16;;;;;;;8.90;4.37;;;7.00;1.00;;;;;;5038175;28;20759;-64
2022/12/27 10:32:44;;;;;;;6.37;4.77;;;7.30;1.00;;;;;;5038574;28;20467;-64
2022/12/27 10:35:16;;;;;;;7.43;4.20;;;7.40;1.00;;;;;;5038712;28;20546;-64
2022/12/27 10:37:44;;;;;;;6.13;4.17;;;7.40;1.00;;;;;;5038222;28;20515;-64
2022/12/27 10:40:16;;;;;;;11.30;4.17;;;7.40;1.00;;;;;;5038294;28;20471;-64
2022/12/27 10:42:48;;;;;;;5.40;3.20;;;7.50;1.00;;;;;;5038285;28;20445;-64
2022/12/27 10:45:38;;;;;;;15.30;4.63;;;7.70;1.00;;;;;;5038200;28;20470;-64
2022/12/27 10:48:19;;;;;;;6.20;3.50;;;7.80;1.00;;;;;;5032625;28;20525;-64
2022/12/27 10:50:50;;;;;;;9.40;5.73;;;7.70;1.00;;;;;;5038614;28;20459;-64
2022/12/27 10:53:33;;;;;;;8.53;4.23;;;7.60;1.00;;;;;;5035580;28;20770;-64
2022/12/27 10:56:15;;;;;;;6.97;4.57;;;7.40;1.00;;;;;;5029998;28;20474;-64
2022/12/27 10:58:45;;;;;;;8.43;4.80;;;7.40;1.00;;;;;;5035759;28;20792;-64
2022/12/27 11:01:18;;;;;;;10.57;4.70;;;7.50;1.00;;;;;;5024245;28;20463;-64
2022/12/27 11:03:47;;;;;;;6.90;4.50;;;7.40;1.00;;;;;;5028496;28;20449;-64
2022/12/27 11:06:25;;;;;;;18.63;4.97;;;7.60;1.00;;;;;;5031261;28;20595;-64
2022/12/27 11:08:54;;;;;;;8.20;4.17;;;7.90;1.00;;;;;;5030033;28;20495;-64
2022/12/27 11:11:23;;;;;;;7.47;4.10;;;8.10;1.00;;;;;;5037158;28;20785;-64
2022/12/27 11:13:51;;;;;;;9.47;4.00;;;8.30;1.00;;;;;;5020937;28;20531;-64
2022/12/27 11:16:27;;;;;;;7.90;4.70;;;8.20;1.00;;;;;;5019278;28;20651;-64
2022/12/27 11:18:58;;;;;;;7.13;4.50;;;8.10;1.00;;;;;;5018370;28;20779;-64
2022/12/27 11:21:26;;;;;;;7.60;5.27;;;7.80;1.00;;;;;;5017825;28;20464;-64
2022/12/27 11:23:58;;;;;;;10.57;4.33;;;7.50;1.00;;;;;;5017850;28;20442;-64
2022/12/27 11:26:29;;;;;;;10.13;5.03;;;7.50;1.00;;;;;;5025166;28;20467;-64
2022/12/27 11:28:58;;;;;;;9.40;4.50;;;7.40;1.00;;;;;;5035154;28;20494;-64
2022/12/27 11:31:34;;;;;;;10.77;5.37;;;7.20;1.00;;;;;;5026760;28;20460;-64
2022/12/27 11:34:07;;;;;;;12.23;4.63;;;6.90;1.00;;;;;;5016394;28;20470;-64
2022/12/27 11:36:39;;;;;;;10.20;5.67;;;6.80;1.00;;;;;;5016371;28;20968;-64
2022/12/27 11:39:07;;;;;;;10.63;5.03;;;6.70;1.00;;;;;;5016713;28;20471;-64
2022/12/27 11:41:43;;;;;;;7.90;4.83;;;6.60;1.00;;;;;;5016848;28;20486;-64
2022/12/27 11:44:22;;;;;;;10.50;5.70;;;6.60;1.00;;;;;;5016873;28;20468;-64
2022/12/27 11:46:53;;;;;;;12.87;5.77;;;6.60;1.00;;;;;;5017430;28;20466;-64
2022/12/27 11:49:27;;;;;;;10.50;5.60;;;6.60;1.00;;;;;;5016672;28;20468;-64
2022/12/27 11:52:27;;;;;;;12.83;5.03;;;6.60;1.00;;;;;;5016623;28;20459;-64
2022/12/27 11:55:28;;;;;;;6.97;5.00;;;6.60;1.00;;;;;;5017399;28;20460;-64
2022/12/27 11:58:27;;;;;;;8.37;4.93;;;6.70;1.00;;;;;;5017064;28;20560;-64
2022/12/27 12:01:16;;;;;;;12.30;6.27;;;6.70;1.00;;;;;;5017191;28;20916;-64
2022/12/27 12:04:05;;;;;;;10.53;4.90;;;6.80;1.00;;;;;;5016838;28;20472;-64
2022/12/27 12:06:47;;;;;;;9.40;4.03;;;6.90;1.00;;;;;;5016413;28;20487;-64
2022/12/27 12:09:48;;;;;;;9.10;4.73;;;7.00;1.00;;;;;;5023807;28;20884;-64
2022/12/27 12:12:55;;;;;;;8.67;5.00;;;7.00;1.00;;;;;;5034081;28;20459;-64
2022/12/27 12:15:45;;;;;;;8.40;4.70;;;7.20;1.00;;;;;;5014980;28;20921;-65
2022/12/27 12:18:37;;;;;;;11.80;5.10;;;7.20;1.00;;;;;;5028901;28;20517;-64
2022/12/27 12:21:30;;;;;;;9.37;4.57;;;7.10;1.00;;;;;;5054531;28;20462;-64
2022/12/27 12:24:33;;;;;;;11.20;4.87;;;7.10;1.00;;;;;;5056216;28;20466;-64
2022/12/27 12:27:35;;;;;;;7.40;4.47;;;7.10;1.00;;;;;;5055376;28;20571;-64
2022/12/27 12:30:49;;;;;;;17.23;5.20;;;7.00;1.00;;;;;;4986402;28;20466;-64
2022/12/27 12:33:38;;;;;;;7.27;3.93;;;7.00;1.00;;;;;;4958677;29;20466;-64
2022/12/27 12:36:40;;;;;;;9.27;5.30;;;6.90;1.00;;;;;;4956112;29;20494;-64
2022/12/27 12:39:19;;;;;;;74.97;42.77;;;6.90;1.00;;;;;;5035263;28;20511;-64
2022/12/27 12:42:08;;;;;;;68.50;33.17;;;7.00;1.00;;;;;;5041552;28;20430;-64
2022/12/27 12:44:57;;;;;;;97.30;58.87;;;7.00;1.00;;;;;;5028315;28;20445;-63
2022/12/27 12:47:43;;;;;;;77.00;49.17;;;7.00;1.00;;;;;;5018776;28;20469;-63
2022/12/27 12:50:28;;;;;;;27.80;17.50;;;7.10;1.00;;;;;;5023480;28;20903;-63
2022/12/27 12:53:28;;;;;;;31.97;19.30;;;7.10;1.00;;;;;;5034667;28;20459;-64
2022/12/27 12:56:11;;;;;;;20.27;11.73;;;7.10;1.00;;;;;;4982680;28;20467;-63
2022/12/27 12:58:50;;;;;;;24.83;12.50;;;7.20;1.00;;;;;;5036347;28;20490;-63
2022/12/27 13:01:40;;;;;;;9.03;4.73;;;7.20;1.00;;;;;;5039112;28;20469;-63
2022/12/27 13:04:38;;;;;;;50.63;23.43;;;7.20;1.00;;;;;;5039661;28;20970;-63
2022/12/27 13:07:32;;;;;;;16.67;9.10;;;7.10;1.00;;;;;;4992408;28;20468;-63
2022/12/27 13:10:24;;;;;;;124.40;60.77;;;7.10;1.00;;;;;;5019553;28;20498;-65
2022/12/27 13:12:58;;;;;;;18.33;7.30;;;7.20;1.00;;;;;;4981097;28;20952;-65
2022/12/27 13:15:37;;;;;;;8.40;4.73;;;7.30;1.00;;;;;;5018764;28;20431;-65
2022/12/27 13:18:19;;;;;;;7.30;4.17;;;7.40;1.00;;;;;;5018806;28;20495;-65
2022/12/27 13:21:12;;;;;;;6.00;3.20;;;7.50;1.00;;;;;;5018877;28;20471;-65
2022/12/27 13:23:53;;;;;;;6.47;3.70;;;7.60;1.00;;;;;;5019104;28;20460;-65
2022/12/27 13:26:38;;;;;;;12.50;4.43;;;7.60;1.00;;;;;;5019789;28;20469;-65
2022/12/27 13:29:28;;;;;;;6.50;4.00;;;7.70;1.00;;;;;;5019357;28;20516;-65
2022/12/27 13:32:03;;;;;;;5.83;3.23;;;7.60;1.00;;;;;;5007004;28;20457;-65
2022/12/27 13:34:44;;;;;;;7.57;3.50;;;7.40;1.00;;;;;;5000527;28;20889;-65
2022/12/27 13:37:22;;;;;;;9.03;4.87;;;7.40;1.00;;;;;;5000457;28;20507;-65
2022/12/27 13:40:07;;;;;;;8.33;3.60;;;7.60;1.00;;;;;;5000103;28;20464;-65
2022/12/27 13:43:13;;;;;;;11.70;4.33;;;7.50;1.00;;;;;;5000204;28;20909;-65
2022/12/27 13:45:55;;;;;;;7.70;4.17;;;7.40;1.00;;;;;;4943051;28;20895;-65
2022/12/27 13:48:51;;;;;;;11.47;4.20;;;7.40;1.00;;;;;;5002226;28;20908;-65
2022/12/27 13:51:41;;;;;;;9.07;3.70;;;7.40;1.00;;;;;;5007095;28;20473;-65
2022/12/27 13:54:52;;;;;;;7.77;5.63;;;7.40;1.00;;;;;;5005234;28;20481;-65
2022/12/27 13:57:37;;;;;;;9.30;3.70;;;7.50;1.00;;;;;;5006723;28;20542;-65
2022/12/27 14:00:16;;;;;;;9.80;5.60;;;7.50;1.00;;;;;;5005807;28;20464;-65
2022/12/27 14:03:21;;;;;;;18.17;8.57;;;7.50;1.00;;;;;;4998788;28;20455;-65
2022/12/27 14:06:14;;;;;;;113.07;50.80;;;7.50;1.00;;;;;;5003241;28;20499;-65
2022/12/27 14:09:15;;;;;;;97.13;38.50;;;7.50;1.00;;;;;;5019242;28;20462;-65
2022/12/27 14:11:53;;;;;;;58.70;20.70;;;7.50;1.00;;;;;;5019966;28;20474;-65
2022/12/27 14:14:21;;;;;;;21.73;13.50;;;7.50;1.00;;;;;;5017649;28;20894;-65
2022/12/27 14:17:00;;;;;;;11.70;7.40;;;7.50;1.00;;;;;;5017822;28;20467;-65
2022/12/27 14:19:47;;;;;;;7.73;5.03;;;7.50;1.00;;;;;;5022135;28;20958;-64
2022/12/27 14:22:44;;;;;;;11.10;5.77;;;7.50;1.00;;;;;;5026487;28;20459;-65
2022/12/27 14:25:52;;;;;;;9.50;4.33;;;7.50;1.00;;;;;;5023654;28;20495;-65
2022/12/27 14:29:00;;;;;;;7.80;3.80;;;7.50;1.00;;;;;;5015255;28;20752;-65
2022/12/27 14:32:03;;;;;;;8.87;3.10;;;7.50;1.00;;;;;;5016186;28;20460;-64
2022/12/27 14:35:03;;;;;;;8.30;4.50;;;7.40;1.00;;;;;;5001044;28;20464;-64
2022/12/27 14:38:06;;;;;;;43.53;22.73;;;7.30;1.00;;;;;;5006042;28;20511;-64
2022/12/27 14:41:11;;;;;;;95.80;51.90;;;7.20;1.00;;;;;;5016984;28;20456;-65
2022/12/27 14:44:10;;;;;;;98.87;53.67;;;7.20;1.00;;;;;;5025229;28;20558;-64
2022/12/27 14:47:24;;;;;;;14.03;10.73;;;7.10;1.00;;;;;;5017199;28;20534;-65
2022/12/27 14:50:45;;;;;;;11.50;5.63;;;7.10;1.00;;;;;;4965093;28;20439;-65
2022/12/27 14:53:53;;;;;;;5.93;3.37;;;7.00;1.00;;;;;;5017035;28;20465;-65
2022/12/27 14:56:29;;;;;;;7.73;3.47;;;7.10;1.00;;;;;;5008839;28;20472;-65
2022/12/27 14:59:09;;;;;;;7.30;3.83;;;7.00;1.00;;;;;;5023265;28;20491;-63
2022/12/27 15:01:51;;;;;;;12.33;5.30;;;7.10;1.00;;;;;;5024989;28;20590;-63
2022/12/27 15:04:56;;;;;;;5.50;3.97;;;7.00;1.00;;;;;;5023823;28;20464;-63
2022/12/27 15:07:40;;;;;;;13.97;8.80;;;7.00;1.00;;;;;;5002583;28;20474;-62
2022/12/27 15:10:17;;;;;;;9.20;3.90;;;7.00;1.00;;;;;;4997380;28;20540;-63
2022/12/27 15:12:57;;;;;;;6.77;2.63;;;6.90;1.00;;;;;;5005846;28;20451;-63
2022/12/27 15:15:36;;;;;;;8.47;3.03;;;6.80;1.00;;;;;;4998413;28;20469;-63